Time;durP1;ratioP1;P1;durP2;ratioP2;P2;SDS_P1;SDS_P2;PMS_P1;PMS_P2;Temp;Humidity;BMP_temperature;BMP_pressure;BME280_temperature;BME280_humidity;BME280_pressure;Samples;Min_cycle;Max_cycle;Signal;HPM_P1;HPM_P2
2021/04/25 00:01:44;;;;;;;4.32;1.90;;;15.60;44.40;;;;;;6139172;23;20045;-77
2021/04/25 00:04:14;;;;;;;5.45;1.83;;;15.60;44.40;;;;;;6139041;23;20057;-78
2021/04/25 00:06:44;;;;;;;4.10;1.92;;;15.50;44.40;;;;;;6139180;23;20013;-77
2021/04/25 00:09:11;;;;;;;6.72;2.13;;;15.60;44.40;;;;;;6129205;23;20041;-76
2021/04/25 00:11:37;;;;;;;4.57;1.50;;;15.60;44.40;;;;;;6138710;23;20009;-77
2021/04/25 00:14:04;;;;;;;5.32;1.90;;;15.50;44.30;;;;;;6139266;23;20106;-77
2021/04/25 00:16:30;;;;;;;3.90;1.42;;;15.50;44.20;;;;;;6139170;23;20014;-76
2021/04/25 00:18:58;;;;;;;4.68;1.70;;;15.50;44.20;;;;;;6139685;23;20017;-77
2021/04/25 00:21:25;;;;;;;4.80;1.75;;;15.50;44.10;;;;;;6138608;23;20018;-77
2021/04/25 00:23:51;;;;;;;4.05;1.90;;;15.50;44.10;;;;;;6138568;23;20030;-77
2021/04/25 00:26:17;;;;;;;7.03;1.85;;;15.40;44.00;;;;;;6139573;23;20361;-76
2021/04/25 00:28:43;;;;;;;5.82;1.77;;;15.40;43.90;;;;;;6138533;23;20009;-77
2021/04/25 00:31:09;;;;;;;4.65;1.52;;;15.40;43.90;;;;;;6138706;23;20018;-77
2021/04/25 00:33:35;;;;;;;3.17;1.17;;;15.40;43.90;;;;;;6138540;23;20024;-76
2021/04/25 00:36:02;;;;;;;3.75;1.30;;;15.40;43.90;;;;;;6138355;23;20010;-76
2021/04/25 00:38:27;;;;;;;3.45;1.10;;;15.40;43.90;;;;;;6138832;23;20017;-77
2021/04/25 00:40:53;;;;;;;5.47;1.45;;;15.40;43.90;;;;;;6138530;23;20018;-78
2021/04/25 00:43:19;;;;;;;6.15;1.60;;;15.40;43.90;;;;;;6139323;23;20014;-77
2021/04/25 00:45:45;;;;;;;3.35;1.15;;;15.40;44.00;;;;;;6138589;23;20017;-77
2021/04/25 00:48:11;;;;;;;5.70;1.33;;;15.40;44.00;;;;;;6138416;23;20352;-77
2021/04/25 00:50:37;;;;;;;7.82;1.42;;;15.30;43.90;;;;;;6138397;23;20295;-78
2021/04/25 00:53:03;;;;;;;4.20;1.00;;;15.40;44.00;;;;;;6138501;23;20288;-77
2021/04/25 00:55:32;;;;;;;4.70;1.60;;;15.40;44.00;;;;;;6137645;23;20025;-77
2021/04/25 00:57:58;;;;;;;3.95;1.55;;;15.30;44.10;;;;;;6138266;23;20009;-77
2021/04/25 01:00:26;;;;;;;6.75;1.30;;;15.30;44.10;;;;;;6129692;23;20018;-76
2021/04/25 01:02:51;;;;;;;5.18;1.40;;;15.30;44.20;;;;;;6128611;23;20024;-76
2021/04/25 01:05:20;;;;;;;5.50;1.48;;;15.30;44.20;;;;;;6133436;23;20396;-76
2021/04/25 01:07:47;;;;;;;4.78;1.45;;;15.20;44.00;;;;;;6129583;23;20022;-76
2021/04/25 01:10:14;;;;;;;5.18;1.58;;;15.20;44.00;;;;;;6139644;23;20061;-77
2021/04/25 01:12:42;;;;;;;5.30;1.42;;;15.20;44.00;;;;;;6138949;23;20033;-76
2021/04/25 01:15:10;;;;;;;5.15;1.55;;;15.20;44.00;;;;;;6138558;23;20021;-76
2021/04/25 01:17:39;;;;;;;4.20;1.35;;;15.20;44.00;;;;;;6138837;23;20017;-76
2021/04/25 01:20:07;;;;;;;5.55;1.63;;;15.20;44.00;;;;;;6138503;23;20038;-76
2021/04/25 01:22:32;;;;;;;4.68;1.63;;;15.20;44.00;;;;;;6137863;23;20359;-76
2021/04/25 01:24:58;;;;;;;3.95;1.90;;;15.20;44.00;;;;;;6139003;23;20013;-77
2021/04/25 01:27:24;;;;;;;5.25;1.58;;;15.20;44.00;;;;;;6138419;23;20387;-77
2021/04/25 01:29:50;;;;;;;4.63;1.58;;;15.20;44.00;;;;;;6138005;23;20010;-78
2021/04/25 01:32:16;;;;;;;4.82;1.70;;;15.20;44.10;;;;;;6138373;23;20009;-77
2021/04/25 01:34:42;;;;;;;4.55;1.42;;;15.20;44.10;;;;;;6138126;23;20034;-76
2021/04/25 01:37:07;;;;;;;4.90;1.88;;;15.20;44.10;;;;;;6138283;23;20014;-77
2021/04/25 01:39:33;;;;;;;4.15;1.98;;;15.20;44.10;;;;;;6138549;23;20289;-76
2021/04/25 01:41:59;;;;;;;4.70;1.55;;;15.20;44.20;;;;;;6137946;23;20006;-76
2021/04/25 01:44:25;;;;;;;5.57;1.55;;;15.20;44.30;;;;;;6137921;23;20010;-76
2021/04/25 01:46:51;;;;;;;4.95;1.65;;;15.10;44.30;;;;;;6138080;23;20091;-76
2021/04/25 01:49:18;;;;;;;3.70;1.75;;;15.10;44.40;;;;;;6138108;23;20129;-76
2021/04/25 01:51:44;;;;;;;4.32;1.60;;;15.10;44.40;;;;;;6128059;23;20404;-77
2021/04/25 01:54:11;;;;;;;4.85;1.85;;;15.10;44.40;;;;;;6138113;23;20013;-76
2021/04/25 01:56:37;;;;;;;7.10;2.22;;;15.00;44.30;;;;;;6138264;23;20014;-76
2021/04/25 01:59:04;;;;;;;4.95;2.10;;;15.10;44.30;;;;;;6138448;23;20020;-77
2021/04/25 02:01:30;;;;;;;5.15;1.83;;;15.00;44.30;;;;;;6138780;23;20018;-76
2021/04/25 02:03:56;;;;;;;6.05;2.25;;;15.00;44.20;;;;;;6137906;23;20013;-76
2021/04/25 02:06:22;;;;;;;5.90;1.85;;;15.00;44.10;;;;;;6130106;23;20014;-75
2021/04/25 02:08:49;;;;;;;4.13;2.10;;;15.00;44.00;;;;;;6138859;23;20021;-77
2021/04/25 02:11:15;;;;;;;5.07;1.83;;;15.00;44.00;;;;;;6138077;23;20037;-76
2021/04/25 02:13:41;;;;;;;6.38;1.80;;;15.00;44.00;;;;;;6138867;23;20052;-78
2021/04/25 02:16:07;;;;;;;3.67;1.45;;;15.00;44.00;;;;;;6138827;23;20017;-75
2021/04/25 02:18:33;;;;;;;5.15;2.08;;;14.90;44.00;;;;;;6140209;23;20010;-77
2021/04/25 02:21:00;;;;;;;5.25;1.60;;;14.90;44.20;;;;;;6140114;23;20073;-77
2021/04/25 02:23:26;;;;;;;6.00;1.38;;;14.90;44.20;;;;;;6130639;23;20022;-76
2021/04/25 02:25:52;;;;;;;6.60;1.50;;;14.90;44.30;;;;;;6139742;23;20010;-76
2021/04/25 02:28:18;;;;;;;5.65;1.70;;;14.90;44.40;;;;;;6140285;23;20010;-76
2021/04/25 02:30:45;;;;;;;7.28;1.80;;;14.90;44.40;;;;;;6130174;23;20018;-76
2021/04/25 02:33:12;;;;;;;3.72;1.50;;;14.90;44.40;;;;;;6139793;23;20300;-76
2021/04/25 02:35:38;;;;;;;5.25;1.15;;;14.80;44.30;;;;;;6140662;23;20018;-76
2021/04/25 02:38:04;;;;;;;3.47;1.00;;;14.80;44.30;;;;;;6140546;23;20033;-76
2021/04/25 02:40:32;;;;;;;4.80;0.82;;;14.80;44.30;;;;;;6140054;23;20020;-76
2021/04/25 02:42:59;;;;;;;5.60;1.55;;;14.80;44.30;;;;;;6140273;23;20014;-77
2021/04/25 02:45:27;;;;;;;6.22;1.17;;;14.80;44.30;;;;;;6130954;23;20013;-76
2021/04/25 02:47:55;;;;;;;3.63;0.93;;;14.80;44.30;;;;;;6139485;23;20048;-76
2021/04/25 02:50:24;;;;;;;6.88;1.27;;;14.80;44.30;;;;;;6130873;23;20014;-76
2021/04/25 02:52:50;;;;;;;5.60;1.40;;;14.80;44.30;;;;;;6139854;23;20014;-76
2021/04/25 02:55:16;;;;;;;5.78;1.17;;;14.80;44.40;;;;;;6140141;23;20013;-76
2021/04/25 02:57:42;;;;;;;5.63;1.10;;;14.80;44.30;;;;;;6130060;23;20010;-76
2021/04/25 03:00:14;;;;;;;4.53;1.30;;;14.80;44.30;;;;;;6139497;23;20014;-76
2021/04/25 03:02:39;;;;;;;5.18;1.13;;;14.80;44.30;;;;;;6139934;23;20077;-77
2021/04/25 03:05:06;;;;;;;6.75;0.93;;;14.80;44.30;;;;;;6136475;23;20026;-77
2021/04/25 03:07:33;;;;;;;3.67;0.75;;;14.80;44.40;;;;;;6140406;23;20033;-77
2021/04/25 03:09:59;;;;;;;3.15;1.08;;;14.80;44.40;;;;;;6139651;23;20408;-76
2021/04/25 03:12:26;;;;;;;2.42;0.80;;;14.80;44.50;;;;;;6138541;23;20045;-76
2021/04/25 03:14:55;;;;;;;5.85;1.30;;;14.80;44.60;;;;;;6139660;23;20084;-76
2021/04/25 03:17:21;;;;;;;5.20;1.10;;;14.80;44.60;;;;;;6139577;23;20100;-76
2021/04/25 03:19:46;;;;;;;4.68;0.95;;;14.80;44.60;;;;;;6139595;23;20034;-77
2021/04/25 03:22:12;;;;;;;5.85;0.88;;;14.80;44.60;;;;;;6130387;23;20030;-76
2021/04/25 03:24:38;;;;;;;4.70;1.15;;;14.70;44.70;;;;;;6138143;23;20034;-76
2021/04/25 03:27:04;;;;;;;4.57;1.02;;;14.70;44.70;;;;;;6129714;23;20056;-77
2021/04/25 03:29:30;;;;;;;5.10;1.05;;;14.70;44.60;;;;;;6130340;23;20017;-77
2021/04/25 03:31:56;;;;;;;4.18;1.35;;;14.70;44.60;;;;;;6139493;23;20273;-76
2021/04/25 03:34:22;;;;;;;3.78;1.00;;;14.70;44.60;;;;;;6139324;23;20077;-76
2021/04/25 03:36:48;;;;;;;4.13;0.93;;;14.70;44.60;;;;;;6139737;23;20020;-76
2021/04/25 03:39:14;;;;;;;5.05;1.30;;;14.70;44.50;;;;;;6139456;23;20033;-76
2021/04/25 03:41:40;;;;;;;3.33;0.77;;;14.70;44.40;;;;;;6139250;23;20033;-76
2021/04/25 03:44:06;;;;;;;4.82;0.93;;;14.70;44.40;;;;;;6138969;23;20009;-76
2021/04/25 03:46:32;;;;;;;8.05;1.17;;;14.70;44.50;;;;;;6129480;23;20013;-76
2021/04/25 03:48:57;;;;;;;5.18;0.93;;;14.70;44.60;;;;;;6138906;23;20479;-76
2021/04/25 03:51:23;;;;;;;7.47;1.13;;;14.70;44.60;;;;;;6139331;23;20025;-77
2021/04/25 03:53:49;;;;;;;3.30;0.93;;;14.70;44.60;;;;;;6139608;23;20348;-76
2021/04/25 03:56:15;;;;;;;4.00;1.08;;;14.70;44.60;;;;;;6139397;23;20010;-76
2021/04/25 03:58:41;;;;;;;6.30;1.05;;;14.70;44.50;;;;;;6129474;23;20295;-76
2021/04/25 04:01:07;;;;;;;5.07;0.98;;;14.60;44.50;;;;;;6138518;23;20479;-76
2021/04/25 04:03:33;;;;;;;5.43;1.00;;;14.60;44.50;;;;;;6138686;23;20014;-76
2021/04/25 04:06:00;;;;;;;5.78;1.10;;;14.60;44.40;;;;;;6132432;23;20018;-76
2021/04/25 04:08:26;;;;;;;5.38;1.23;;;14.60;44.40;;;;;;6139605;23;20010;-77
2021/04/25 04:10:53;;;;;;;3.10;0.77;;;14.60;44.40;;;;;;6139175;23;20010;-76
2021/04/25 04:13:18;;;;;;;5.72;0.90;;;14.60;44.40;;;;;;6138744;23;20014;-76
2021/04/25 04:15:44;;;;;;;5.20;1.00;;;14.60;44.50;;;;;;6138878;23;20076;-77
2021/04/25 04:18:10;;;;;;;3.88;0.52;;;14.60;44.50;;;;;;6129563;23;20022;-76
2021/04/25 04:20:36;;;;;;;3.92;1.00;;;14.60;44.60;;;;;;6139388;23;20014;-76
2021/04/25 04:23:02;;;;;;;4.93;0.80;;;14.60;44.70;;;;;;6128820;23;20131;-77
2021/04/25 04:25:28;;;;;;;3.72;0.75;;;14.50;44.80;;;;;;6138331;23;20451;-76
2021/04/25 04:27:54;;;;;;;3.90;0.95;;;14.60;44.90;;;;;;6138524;23;20029;-76
2021/04/25 04:30:20;;;;;;;7.00;1.33;;;14.50;44.90;;;;;;6138696;23;20014;-76
2021/04/25 04:32:46;;;;;;;3.72;0.77;;;14.60;45.00;;;;;;6138607;23;20010;-77
2021/04/25 04:35:13;;;;;;;4.93;0.93;;;14.60;45.10;;;;;;6127592;23;20028;-77
2021/04/25 04:37:39;;;;;;;5.38;0.82;;;14.50;45.10;;;;;;6138483;23;20025;-76
2021/04/25 04:40:05;;;;;;;4.72;1.17;;;14.60;45.10;;;;;;6138782;23;20022;-76
2021/04/25 04:42:31;;;;;;;8.48;1.77;;;14.50;45.10;;;;;;6138379;23;20062;-76
2021/04/25 04:44:57;;;;;;;3.33;1.13;;;14.50;45.10;;;;;;6138576;23;20017;-76
2021/04/25 04:47:23;;;;;;;4.55;1.30;;;14.50;45.20;;;;;;6139181;23;20009;-76
2021/04/25 04:49:49;;;;;;;5.38;1.13;;;14.50;45.30;;;;;;6139139;23;20049;-76
2021/04/25 04:52:15;;;;;;;6.10;1.08;;;14.50;45.30;;;;;;6139480;23;20014;-76
2021/04/25 04:54:41;;;;;;;4.72;0.85;;;14.50;45.30;;;;;;6138956;23;20265;-77
2021/04/25 04:57:07;;;;;;;4.93;1.00;;;14.50;45.30;;;;;;6138608;23;20024;-75
2021/04/25 04:59:33;;;;;;;4.75;0.90;;;14.50;45.30;;;;;;6138487;23;20013;-76
2021/04/25 05:01:59;;;;;;;4.10;0.93;;;14.50;45.30;;;;;;6128721;23;20052;-76
2021/04/25 05:04:24;;;;;;;3.92;0.88;;;14.50;45.20;;;;;;6128691;23;20013;-76
2021/04/25 05:06:51;;;;;;;5.00;1.00;;;14.50;45.20;;;;;;6128336;23;20033;-76
2021/04/25 05:09:17;;;;;;;7.93;1.45;;;14.50;45.10;;;;;;6138617;23;20013;-77
2021/04/25 05:11:43;;;;;;;7.32;1.20;;;14.40;45.10;;;;;;6139253;23;20400;-80
2021/04/25 05:14:12;;;;;;;10.88;1.67;;;14.40;45.50;;;;;;6136647;23;20017;-83
2021/04/25 05:16:38;;;;;;;10.43;1.50;;;14.50;46.10;;;;;;6151614;23;20021;-82
2021/04/25 05:19:54;;;;;;;9.60;1.23;;;14.50;46.50;;;;;;6151212;23;20010;-82
2021/04/25 05:22:23;;;;;;;5.88;0.80;;;14.60;46.70;;;;;;6127174;23;20081;-80
2021/04/25 05:24:50;;;;;;;7.90;1.13;;;14.80;46.60;;;;;;6128248;23;20006;-77
2021/04/25 05:27:24;;;;;;;7.70;1.30;;;14.90;46.60;;;;;;6137979;23;20010;-81
2021/04/25 05:29:50;;;;;;;5.07;1.15;;;15.00;46.70;;;;;;6138388;23;20009;-82
2021/04/25 05:32:21;;;;;;;9.70;0.90;;;15.20;46.60;;;;;;6102743;23;20025;-81
2021/04/25 05:34:50;;;;;;;7.28;1.08;;;15.20;46.70;;;;;;6138303;23;20014;-80
2021/04/25 05:37:18;;;;;;;7.03;1.00;;;15.40;46.80;;;;;;6160765;23;20006;-80
2021/04/25 05:39:44;;;;;;;5.53;1.00;;;15.50;47.20;;;;;;6138002;23;20430;-80
2021/04/25 05:42:30;;;;;;;10.25;1.45;;;15.60;47.50;;;;;;6137989;23;20017;-81
2021/04/25 05:44:56;;;;;;;6.32;1.02;;;15.70;48.20;;;;;;6151490;23;20403;-80
2021/04/25 05:47:23;;;;;;;8.95;1.08;;;15.70;47.90;;;;;;6127624;23;20048;-78
2021/04/25 05:49:49;;;;;;;8.98;0.85;;;15.70;47.80;;;;;;6138009;23;20014;-78
2021/04/25 05:52:14;;;;;;;8.18;1.52;;;15.60;47.10;;;;;;6136766;23;20032;-80
2021/04/25 05:54:40;;;;;;;7.88;1.15;;;15.70;48.40;;;;;;6136829;23;20025;-78
2021/04/25 05:57:08;;;;;;;7.57;1.08;;;15.80;48.60;;;;;;6137010;23;20128;-82
2021/04/25 05:59:37;;;;;;;5.97;1.10;;;15.90;48.60;;;;;;6151249;23;20018;-80
2021/04/25 06:02:07;;;;;;;7.68;1.05;;;16.00;48.70;;;;;;6134286;23;20479;-81
2021/04/25 06:04:33;;;;;;;8.63;1.27;;;16.00;48.90;;;;;;6135511;23;20077;-81
2021/04/25 06:07:00;;;;;;;5.22;1.05;;;16.10;49.00;;;;;;6127263;23;20017;-79
2021/04/25 06:09:26;;;;;;;6.10;1.33;;;16.10;48.90;;;;;;6137672;23;20010;-81
2021/04/25 06:11:53;;;;;;;7.60;1.30;;;16.10;49.00;;;;;;6127748;23;20017;-78
2021/04/25 06:14:20;;;;;;;5.57;1.63;;;16.10;49.10;;;;;;6127447;23;20017;-79
2021/04/25 06:16:46;;;;;;;9.20;1.40;;;16.00;49.70;;;;;;6137755;23;20028;-78
2021/04/25 06:19:12;;;;;;;9.63;1.33;;;16.10;49.90;;;;;;6127970;23;20010;-77
2021/04/25 06:21:38;;;;;;;10.15;1.17;;;16.10;49.90;;;;;;6138001;23;20017;-78
2021/04/25 06:24:04;;;;;;;8.38;1.55;;;16.20;50.00;;;;;;6137694;23;20014;-79
2021/04/25 06:26:30;;;;;;;5.90;1.20;;;16.20;49.90;;;;;;6137579;23;20025;-75
2021/04/25 06:28:56;;;;;;;6.28;0.90;;;16.30;49.90;;;;;;6137765;23;20009;-76
2021/04/25 06:31:22;;;;;;;10.15;1.23;;;16.40;49.80;;;;;;6127294;23;20018;-75
2021/04/25 06:33:48;;;;;;;11.77;1.38;;;16.40;49.70;;;;;;6137794;23;20033;-75
2021/04/25 06:36:14;;;;;;;7.60;1.38;;;16.50;49.70;;;;;;6137066;23;20029;-76
2021/04/25 06:38:40;;;;;;;9.13;1.13;;;16.50;49.80;;;;;;6136952;23;20014;-76
2021/04/25 06:41:06;;;;;;;7.10;1.20;;;16.60;49.70;;;;;;6137780;23;20041;-72
2021/04/25 06:43:33;;;;;;;8.73;1.42;;;16.60;49.50;;;;;;6137571;23;20370;-75
2021/04/25 06:46:00;;;;;;;9.18;1.00;;;16.70;49.50;;;;;;6127654;23;20038;-75
2021/04/25 06:48:26;;;;;;;9.63;1.85;;;16.70;49.60;;;;;;6137644;23;20018;-75
2021/04/25 06:50:51;;;;;;;6.47;1.20;;;16.70;49.80;;;;;;6127708;23;20304;-77
2021/04/25 06:53:17;;;;;;;15.55;1.30;;;16.60;50.30;;;;;;6137680;23;20296;-75
2021/04/25 06:55:43;;;;;;;12.57;1.23;;;16.60;49.90;;;;;;6136342;23;20040;-75
2021/04/25 06:58:09;;;;;;;18.75;1.38;;;16.70;49.50;;;;;;6127890;23;20277;-78
2021/04/25 07:00:35;;;;;;;15.70;1.58;;;16.80;49.40;;;;;;6137475;23;20347;-76
2021/04/25 07:03:00;;;;;;;16.60;1.67;;;16.80;49.30;;;;;;6138890;23;20065;-78
2021/04/25 07:05:27;;;;;;;18.40;2.08;;;16.80;50.60;;;;;;6135117;23;20010;-78
2021/04/25 07:07:53;;;;;;;21.85;2.33;;;16.90;50.00;;;;;;6139372;23;20013;-75
2021/04/25 07:10:19;;;;;;;20.88;2.25;;;16.90;50.60;;;;;;6139316;23;20054;-75
2021/04/25 07:12:46;;;;;;;23.15;2.38;;;17.00;50.50;;;;;;6139534;23;20014;-75
2021/04/25 07:15:12;;;;;;;24.52;2.67;;;17.00;50.60;;;;;;6138804;23;20028;-76
2021/04/25 07:17:38;;;;;;;11.98;1.50;;;17.10;50.90;;;;;;6139210;23;20347;-76
2021/04/25 07:20:10;;;;;;;14.88;1.95;;;17.10;51.40;;;;;;6139456;23;20085;-76
2021/04/25 07:22:37;;;;;;;12.02;1.83;;;17.20;51.80;;;;;;6139161;23;20024;-78
2021/04/25 07:25:03;;;;;;;11.52;2.17;;;17.30;51.80;;;;;;6139160;23;20022;-77
2021/04/25 07:27:29;;;;;;;11.30;1.90;;;17.40;51.80;;;;;;6138989;23;20013;-77
2021/04/25 07:29:55;;;;;;;18.27;1.80;;;17.60;51.80;;;;;;6129731;23;20053;-76
2021/04/25 07:32:21;;;;;;;16.42;2.00;;;17.70;51.80;;;;;;6139022;23;20018;-77
2021/04/25 07:34:47;;;;;;;12.55;1.55;;;17.80;51.70;;;;;;6138842;23;20006;-78
2021/04/25 07:37:14;;;;;;;16.30;2.10;;;17.80;51.40;;;;;;6139328;23;20014;-81
2021/04/25 07:39:40;;;;;;;11.77;2.05;;;17.80;51.40;;;;;;6161062;23;20014;-82
2021/04/25 07:42:07;;;;;;;17.98;2.38;;;17.70;51.50;;;;;;6127778;23;20302;-80
2021/04/25 07:44:43;;;;;;;13.55;1.98;;;17.70;51.70;;;;;;6138968;23;20017;-81
2021/04/25 07:47:09;;;;;;;10.20;1.48;;;17.70;51.90;;;;;;6128946;23;20021;-82
2021/04/25 07:49:35;;;;;;;10.43;2.22;;;17.70;51.90;;;;;;6162036;23;20088;-83
2021/04/25 07:52:01;;;;;;;13.50;1.40;;;17.70;51.70;;;;;;6151949;23;20010;-85
2021/04/25 07:54:33;;;;;;;31.45;2.53;;;17.50;52.70;;;;;;6127445;23;20285;-81
2021/04/25 07:57:02;;;;;;;14.70;1.88;;;17.60;52.80;;;;;;6138655;23;20032;-80
2021/04/25 07:59:28;;;;;;;13.52;1.67;;;17.60;52.50;;;;;;6138936;23;20016;-77
2021/04/25 08:01:53;;;;;;;14.80;2.08;;;17.60;52.30;;;;;;6138467;23;20080;-74
2021/04/25 08:04:19;;;;;;;19.70;2.38;;;17.70;53.10;;;;;;6138285;23;20049;-75
2021/04/25 08:06:45;;;;;;;15.85;2.10;;;17.80;53.60;;;;;;6129016;23;20096;-75
2021/04/25 08:09:13;;;;;;;19.48;2.63;;;17.80;53.40;;;;;;6139005;23;20088;-78
2021/04/25 08:11:39;;;;;;;13.93;2.40;;;17.90;53.10;;;;;;6138772;23;20021;-76
2021/04/25 08:14:06;;;;;;;21.08;2.75;;;18.00;53.30;;;;;;6138020;23;20041;-76
2021/04/25 08:16:32;;;;;;;15.95;2.10;;;18.10;53.40;;;;;;6138790;23;20446;-77
2021/04/25 08:18:58;;;;;;;13.13;2.25;;;18.20;53.60;;;;;;6138798;23;20014;-74
2021/04/25 08:21:26;;;;;;;18.10;2.65;;;18.20;53.50;;;;;;6138429;23;20006;-75
2021/04/25 08:23:52;;;;;;;16.83;2.75;;;18.30;53.60;;;;;;6137343;23;20010;-75
2021/04/25 08:26:18;;;;;;;22.95;2.85;;;18.20;54.00;;;;;;6138278;23;20431;-75
2021/04/25 08:28:44;;;;;;;42.70;4.18;;;18.30;54.50;;;;;;6138497;23;20025;-75
2021/04/25 08:31:10;;;;;;;32.15;3.55;;;18.40;57.90;;;;;;6138579;23;20014;-74
2021/04/25 08:33:35;;;;;;;27.90;4.10;;;18.40;55.70;;;;;;6138379;23;20041;-76
2021/04/25 08:36:02;;;;;;;24.98;2.97;;;18.30;55.30;;;;;;6138407;23;20026;-78
2021/04/25 08:38:28;;;;;;;37.85;3.90;;;18.30;55.10;;;;;;6137998;23;20018;-76
2021/04/25 08:40:57;;;;;;;30.05;3.92;;;18.30;55.10;;;;;;6138751;23;20014;-76
2021/04/25 08:43:24;;;;;;;28.73;3.55;;;18.30;54.80;;;;;;6138657;23;20014;-80
2021/04/25 08:45:52;;;;;;;24.00;2.25;;;18.30;54.40;;;;;;6127420;23;20022;-81
2021/04/25 08:48:25;;;;;;;22.17;3.17;;;18.30;54.30;;;;;;6129036;23;20013;-74
2021/04/25 08:50:51;;;;;;;24.20;2.83;;;18.30;54.20;;;;;;6138035;23;20021;-77
2021/04/25 08:53:19;;;;;;;25.70;3.15;;;18.30;54.40;;;;;;6137972;23;20010;-77
2021/04/25 08:55:45;;;;;;;19.77;3.55;;;18.20;54.60;;;;;;6128393;23;20096;-81
2021/04/25 08:58:11;;;;;;;21.80;2.97;;;18.20;54.70;;;;;;6127333;23;20014;-75
2021/04/25 09:00:37;;;;;;;21.58;2.63;;;18.20;54.90;;;;;;6138570;23;20030;-79
2021/04/25 09:03:03;;;;;;;15.38;2.20;;;18.20;55.10;;;;;;6137317;23;20025;-75
2021/04/25 09:05:30;;;;;;;18.98;2.28;;;18.20;55.00;;;;;;6133454;23;20017;-76
2021/04/25 09:08:03;;;;;;;12.15;1.98;;;18.10;55.00;;;;;;6127582;23;20020;-74
2021/04/25 09:10:36;;;;;;;19.98;3.20;;;18.00;55.30;;;;;;6138330;23;20043;-75
2021/04/25 09:13:16;;;;;;;12.80;2.25;;;17.90;55.70;;;;;;6138406;23;20013;-78
2021/04/25 09:15:44;;;;;;;18.17;2.00;;;17.90;55.50;;;;;;6138326;23;20010;-75
2021/04/25 09:18:11;;;;;;;14.85;2.10;;;17.80;54.30;;;;;;6128301;23;20014;-74
2021/04/25 09:20:46;;;;;;;19.60;1.90;;;17.80;55.10;;;;;;6138165;23;20010;-74
2021/04/25 09:23:20;;;;;;;11.48;1.85;;;17.80;55.20;;;;;;6137948;23;20422;-76
2021/04/25 09:25:58;;;;;;;23.73;2.70;;;17.90;55.80;;;;;;6137953;23;20515;-78
2021/04/25 09:28:24;;;;;;;16.55;2.30;;;18.00;55.00;;;;;;6102656;23;20029;-77
2021/04/25 09:30:55;;;;;;;18.58;1.80;;;17.80;53.00;;;;;;6127860;23;20089;-78
2021/04/25 09:33:22;;;;;;;15.23;2.60;;;17.70;55.10;;;;;;6137570;23;20022;-73
2021/04/25 09:35:48;;;;;;;16.20;2.10;;;17.80;55.20;;;;;;6137019;23;20024;-75
2021/04/25 09:38:14;;;;;;;14.05;1.90;;;17.80;54.40;;;;;;6137748;23;20026;-75
2021/04/25 09:40:49;;;;;;;24.13;2.53;;;17.90;54.80;;;;;;6138020;23;20085;-73
2021/04/25 09:43:17;;;;;;;15.50;1.67;;;17.90;54.60;;;;;;6128166;23;20018;-74
2021/04/25 09:45:46;;;;;;;18.05;2.22;;;18.00;54.40;;;;;;6137734;23;20097;-75
2021/04/25 09:48:28;;;;;;;11.88;2.15;;;18.10;54.20;;;;;;6101606;23;20423;-77
2021/04/25 09:51:26;;;;;;;17.73;2.33;;;18.10;53.90;;;;;;6137801;23;20010;-75
2021/04/25 09:53:52;;;;;;;104.30;33.60;;;18.20;53.60;;;;;;6024943;23;20088;-78
2021/04/25 09:56:20;;;;;;;150.05;46.75;;;18.20;53.20;;;;;;6136448;23;20037;-77
2021/04/25 09:58:56;;;;;;;145.60;46.33;;;18.10;51.00;;;;;;6137860;23;20061;-80
2021/04/25 10:01:32;;;;;;;113.30;37.33;;;18.10;49.10;;;;;;6137721;23;20265;-73
2021/04/25 10:03:59;;;;;;;62.50;21.80;;;17.90;47.90;;;;;;6137327;23;20006;-72
2021/04/25 10:06:26;;;;;;;45.10;15.95;;;17.90;46.20;;;;;;6129287;23;20022;-84
2021/04/25 10:08:53;;;;;;;44.80;15.30;;;17.80;44.70;;;;;;6126351;23;20025;-73
2021/04/25 10:11:21;;;;;;;45.88;14.20;;;17.70;45.10;;;;;;6138010;23;20085;-81
2021/04/25 10:13:48;;;;;;;43.05;13.05;;;17.60;45.30;;;;;;6137590;23;20085;-83
2021/04/25 10:16:20;;;;;;;40.10;11.50;;;17.60;45.50;;;;;;6137474;23;20180;-74
2021/04/25 10:18:47;;;;;;;28.70;10.38;;;17.60;45.70;;;;;;6136991;23;20399;-74
2021/04/25 10:21:14;;;;;;;33.75;9.38;;;17.60;46.20;;;;;;6137597;23;20028;-74
2021/04/25 10:23:40;;;;;;;29.45;10.18;;;17.70;46.70;;;;;;6137776;23;20022;-74
2021/04/25 10:26:10;;;;;;;33.55;10.60;;;17.70;47.00;;;;;;6137960;23;20101;-74
2021/04/25 10:28:42;;;;;;;32.33;9.68;;;17.80;47.40;;;;;;6127482;23;20412;-74
2021/04/25 10:31:14;;;;;;;26.63;8.98;;;17.80;47.80;;;;;;6137702;23;20022;-74
2021/04/25 10:33:52;;;;;;;25.50;8.88;;;17.90;48.20;;;;;;6137875;23;20064;-74
2021/04/25 10:36:18;;;;;;;21.17;7.72;;;17.90;48.50;;;;;;6138195;23;20037;-73
2021/04/25 10:38:44;;;;;;;35.67;8.93;;;17.90;49.30;;;;;;6140201;23;20021;-74
2021/04/25 10:41:20;;;;;;;28.48;8.73;;;17.90;49.00;;;;;;6129185;23;20014;-81
2021/04/25 10:44:02;;;;;;;20.67;7.60;;;17.90;49.50;;;;;;6139226;23;20010;-80
2021/04/25 10:47:15;;;;;;;25.67;6.38;;;17.90;49.00;;;;;;6140317;23;20014;-79
2021/04/25 10:49:42;;;;;;;20.48;6.30;;;17.80;49.10;;;;;;6013404;23;20020;-77
2021/04/25 10:52:33;;;;;;;21.02;5.78;;;17.80;49.20;;;;;;6116283;23;20053;-84
2021/04/25 10:55:39;;;;;;;26.60;6.60;;;17.70;49.10;;;;;;6128042;23;20010;-76
2021/04/25 10:58:16;;;;;;;31.35;6.80;;;17.70;49.40;;;;;;6139057;23;20006;-76
2021/04/25 11:00:45;;;;;;;31.35;7.45;;;17.70;49.70;;;;;;6139180;23;20062;-81
2021/04/25 11:03:33;;;;;;;30.23;6.40;;;17.60;49.70;;;;;;6139309;23;20006;-81
2021/04/25 11:06:00;;;;;;;20.20;4.97;;;17.60;49.60;;;;;;6119314;23;20021;-79
2021/04/25 11:08:32;;;;;;;19.23;4.95;;;17.60;49.60;;;;;;6139398;23;20072;-79
2021/04/25 11:11:02;;;;;;;19.27;4.95;;;17.60;49.40;;;;;;6128389;23;20081;-80
2021/04/25 11:13:41;;;;;;;17.50;5.25;;;17.50;49.40;;;;;;6140376;23;20017;-79
2021/04/25 11:16:10;;;;;;;23.52;5.65;;;17.50;49.30;;;;;;6138095;23;20427;-81
2021/04/25 11:18:52;;;;;;;14.80;4.38;;;17.50;49.40;;;;;;6129711;23;20344;-79
2021/04/25 11:21:32;;;;;;;20.15;4.15;;;17.40;49.30;;;;;;6139385;23;20016;-78
2021/04/25 11:26:41;;;;;;;15.23;3.97;;;17.40;50.00;;;;;;6129457;23;20355;-81
2021/04/25 11:29:14;;;;;;;17.20;4.55;;;17.40;49.40;;;;;;6129458;23;20013;-78
2021/04/25 11:31:49;;;;;;;17.95;3.90;;;17.30;49.30;;;;;;6139409;23;20071;-81
2021/04/25 11:34:31;;;;;;;14.88;4.03;;;17.30;49.40;;;;;;6138627;23;20010;-78
2021/04/25 11:37:05;;;;;;;14.35;3.88;;;17.30;49.30;;;;;;6139514;23;20089;-80
2021/04/25 11:39:55;;;;;;;12.77;3.55;;;17.20;49.40;;;;;;6128367;23;20014;-80
2021/04/25 11:42:52;;;;;;;11.93;3.33;;;17.20;49.50;;;;;;6114024;23;20014;-78
2021/04/25 11:45:29;;;;;;;14.23;3.85;;;17.20;49.40;;;;;;6138304;23;20016;-79
2021/04/25 11:48:00;;;;;;;14.20;3.75;;;17.20;49.40;;;;;;6139259;23;20021;-81
2021/04/25 11:50:38;;;;;;;8.40;2.95;;;17.20;49.60;;;;;;6139820;23;20089;-78
2021/04/25 11:53:04;;;;;;;10.32;3.13;;;17.20;49.50;;;;;;6152463;23;20034;-81
2021/04/25 11:55:30;;;;;;;12.57;3.30;;;17.10;49.50;;;;;;6128528;23;20014;-79
2021/04/25 11:57:56;;;;;;;12.38;3.10;;;17.10;49.60;;;;;;6138102;23;20022;-78
2021/04/25 12:00:25;;;;;;;12.55;3.25;;;17.10;49.60;;;;;;6139103;23;20014;-81
2021/04/25 12:02:53;;;;;;;9.35;2.85;;;17.10;49.70;;;;;;6137445;23;20014;-79
2021/04/25 12:05:23;;;;;;;13.32;3.75;;;17.10;49.70;;;;;;6144575;23;20096;-80
2021/04/25 12:07:54;;;;;;;9.60;3.10;;;17.10;49.70;;;;;;6168425;23;20433;-78
2021/04/25 12:10:37;;;;;;;6.47;2.80;;;17.10;49.70;;;;;;6168311;23;20411;-78
2021/04/25 12:13:19;;;;;;;9.13;2.45;;;17.00;49.60;;;;;;6133232;23;20020;-81
2021/04/25 12:15:56;;;;;;;6.07;1.92;;;17.00;49.70;;;;;;6169179;23;20021;-81
2021/04/25 12:18:29;;;;;;;11.57;3.35;;;17.00;49.80;;;;;;6143164;23;20013;-80
2021/04/25 12:20:58;;;;;;;8.88;2.67;;;16.90;49.90;;;;;;6168831;23;20014;-80
2021/04/25 12:23:36;;;;;;;11.23;3.22;;;16.90;50.00;;;;;;6168473;23;20021;-79
2021/04/25 12:26:09;;;;;;;7.65;2.67;;;16.90;50.00;;;;;;6158555;23;20006;-80
2021/04/25 12:28:36;;;;;;;7.53;2.65;;;16.90;50.00;;;;;;6168626;23;20033;-79
2021/04/25 12:31:02;;;;;;;9.10;2.55;;;16.90;50.20;;;;;;6168868;23;20009;-80
2021/04/25 12:33:43;;;;;;;7.13;2.20;;;16.90;50.20;;;;;;6158403;23;20410;-78
2021/04/25 12:36:12;;;;;;;7.75;2.40;;;16.90;50.20;;;;;;6158706;23;20411;-81
2021/04/25 12:38:39;;;;;;;5.57;2.35;;;16.80;50.80;;;;;;6142533;23;20349;-78
2021/04/25 12:41:07;;;;;;;7.60;2.30;;;16.80;50.20;;;;;;6158404;23;20088;-78
2021/04/25 12:43:50;;;;;;;5.68;2.00;;;16.80;50.30;;;;;;6168218;23;20268;-78
2021/04/25 12:46:25;;;;;;;8.07;2.53;;;16.80;50.20;;;;;;6168241;23;20022;-80
2021/04/25 12:48:58;;;;;;;6.47;1.88;;;16.80;50.30;;;;;;6132534;23;20036;-79
2021/04/25 12:51:25;;;;;;;6.80;2.00;;;16.80;50.20;;;;;;6142814;23;20077;-77
2021/04/25 12:53:51;;;;;;;7.95;2.22;;;16.80;50.40;;;;;;6168044;23;20017;-79